Akra, North Dakota
Current Conditions -  °F | °C
As of 7:55 PM on Sunday 25 Jan 2015 (Local Time) from K2C8 Reporting Station
Overcast Overcast  
Wind Chill: 15°   Ceiling: 1200
Heat Index: 27°   Visibility: 10mi
Dew Point: 23°   Wind: 14mph
Humidity: 86%   Direction: 190°S
Pressure: 29.81"   Gusts: NA
Location:  48.8218°N, 97.697°W
Report Text: K2C8 260155Z AUTO 19012KT 10SM OVC012 M03/M05 A2981 RMK AO2
Loading
Personal Weather Stations






























Interactive Weather Map New forecast layout! Learn more

10-Day Weather Forecast

Advertisements
Track Severe Weather on mobile